Time,TemperatureF,DewpointF,PressureIn,WindDirection,WindDirectionDegrees,WindSpeedMPH,WindSpeedGustMPH,Humidity,HourlyPrecipIn,Conditions,Clouds,dailyrainin,SoftwareType,DateUTC
2013-10-30 00:11:00,30.0,20.0,-100.00,NW,305,2.0,2.0,65,-99.99,,,-99.99,,2013-10-30 07:11:00,
2013-10-30 01:11:00,27.0,19.0,-100.00,North,360,3.0,5.0,71,-99.99,,,-99.99,,2013-10-30 08:11:00,
2013-10-30 02:11:00,26.0,19.0,-100.00,NW,325,3.0,5.0,74,-99.99,,,-99.99,,2013-10-30 09:11:00,
2013-10-30 05:12:00,22.0,16.0,-100.00,NNW,345,5.0,6.0,77,-99.99,,,-99.99,,2013-10-30 12:12:00,
2013-10-30 06:11:00,23.0,17.0,-100.00,NW,305,3.0,5.0,77,-99.99,,,-99.99,,2013-10-30 13:11:00,
2013-10-30 07:11:00,22.0,18.0,-100.00,North,355,2.0,6.0,84,-99.99,,,-99.99,,2013-10-30 14:11:00,
2013-10-30 08:11:00,20.0,16.0,-100.00,NW,325,3.0,5.0,84,-99.99,,,-99.99,,2013-10-30 15:11:00,
2013-10-30 09:12:00,25.0,21.0,-100.00,WNW,300,3.0,5.0,84,-99.99,,,-99.99,,2013-10-30 16:12:00,
2013-10-30 10:12:00,34.0,25.0,-100.00,North,350,0.0,1.0,69,-99.99,,,-99.99,,2013-10-30 17:12:00,
2013-10-30 11:12:00,40.0,27.0,-100.00,SE,130,2.0,3.0,59,-99.99,,,-99.99,,2013-10-30 18:12:00,
2013-10-30 12:11:00,43.0,28.0,-100.00,ESE,115,2.0,5.0,55,-99.99,,,-99.99,,2013-10-30 19:11:00,
2013-10-30 13:12:00,48.0,26.0,-100.00,ENE,75,1.0,5.0,41,-99.99,,,-99.99,,2013-10-30 20:12:00,
2013-10-30 14:12:00,50.0,27.0,-100.00,SE,135,3.0,6.0,40,-99.99,,,-99.99,,2013-10-30 21:12:00,
2013-10-30 15:13:00,53.0,27.0,-100.00,SSE,150,2.0,6.0,36,-99.99,,,-99.99,,2013-10-30 22:13:00,
2013-10-30 16:12:00,55.0,28.0,-100.00,NE,55,3.0,6.0,35,-99.99,,,-99.99,,2013-10-30 23:12:00,
2013-10-30 17:11:00,57.0,28.0,-100.00,SSE,165,1.0,6.0,32,-99.99,,,-99.99,,2013-10-31 00:11:00,
2013-10-30 18:12:00,53.0,28.0,-100.00,West,275,3.0,3.0,37,-99.99,,,-99.99,,2013-10-31 01:12:00,
2013-10-30 19:12:00,45.0,26.0,-100.00,WNW,295,6.0,7.0,47,-99.99,,,-99.99,,2013-10-31 02:12:00,
2013-10-30 20:11:00,47.0,27.0,-100.00,NW,305,3.0,6.0,45,-99.99,,,-99.99,,2013-10-31 03:11:00,
2013-10-30 21:14:00,46.0,27.0,-100.00,NW,315,2.0,5.0,47,-99.99,,,-99.99,,2013-10-31 04:14:00,
2013-10-30 22:13:00,42.0,26.0,-100.00,East,90,2.0,3.0,52,-99.99,,,-99.99,,2013-10-31 05:13:00,
2013-10-30 23:12:00,42.0,27.0,-100.00,NNE,15,3.0,3.0,54,-99.99,,,-99.99,,2013-10-31 06:12:00,